Time;durP1;ratioP1;P1;durP2;ratioP2;P2;SDS_P1;SDS_P2;PMS_P1;PMS_P2;Temp;Humidity;BMP_temperature;BMP_pressure;BME280_temperature;BME280_humidity;BME280_pressure;Samples;Min_cycle;Max_cycle;Signal;HPM_P1;HPM_P2
2021/05/28 00:02:07;;;;;;;5.70;4.50;;;11.20;99.90;;;;;;5098939;28;20242;-59
2021/05/28 00:04:35;;;;;;;5.77;5.00;;;11.20;99.90;;;;;;5099033;28;20208;-59
2021/05/28 00:07:02;;;;;;;5.57;4.80;;;11.20;99.90;;;;;;5099109;28;20203;-60
2021/05/28 00:09:31;;;;;;;4.93;4.53;;;11.10;99.90;;;;;;5098687;28;20203;-58
2021/05/28 00:11:58;;;;;;;5.33;4.83;;;11.10;99.90;;;;;;5095242;28;20294;-59
2021/05/28 00:14:28;;;;;;;5.30;4.80;;;11.10;99.90;;;;;;5095772;28;20195;-58
2021/05/28 00:16:55;;;;;;;5.37;4.87;;;11.20;99.90;;;;;;5094906;28;20214;-59
2021/05/28 00:19:23;;;;;;;6.13;4.90;;;11.10;99.90;;;;;;5095345;28;20220;-60
2021/05/28 00:21:50;;;;;;;8.30;5.13;;;11.10;99.90;;;;;;5095362;28;20675;-59
2021/05/28 00:24:19;;;;;;;7.67;4.60;;;11.20;99.90;;;;;;5095671;28;20218;-60
2021/05/28 00:26:47;;;;;;;5.30;4.80;;;11.30;99.90;;;;;;5095204;28;20204;-59
2021/05/28 00:29:14;;;;;;;5.20;4.57;;;11.20;99.90;;;;;;5102215;28;20436;-59
2021/05/28 00:31:42;;;;;;;5.10;4.60;;;11.20;99.90;;;;;;5075173;28;20283;-59
2021/05/28 00:34:10;;;;;;;6.13;5.27;;;11.20;99.90;;;;;;5075232;28;20211;-61
2021/05/28 00:36:37;;;;;;;6.10;4.87;;;11.10;99.90;;;;;;5074886;28;20871;-60
2021/05/28 00:39:05;;;;;;;6.00;4.60;;;11.10;99.90;;;;;;5074997;28;20292;-60
2021/05/28 00:41:32;;;;;;;5.73;5.10;;;11.20;99.90;;;;;;5075117;28;20216;-58
2021/05/28 00:44:00;;;;;;;5.47;4.53;;;11.20;99.90;;;;;;5074988;28;20197;-59
2021/05/28 00:46:27;;;;;;;5.63;4.73;;;11.10;99.90;;;;;;5074896;28;20201;-59
2021/05/28 00:48:55;;;;;;;5.63;4.70;;;11.20;99.90;;;;;;5074576;28;20580;-59
2021/05/28 00:51:23;;;;;;;5.30;4.80;;;11.20;99.90;;;;;;5074472;28;20892;-60
2021/05/28 00:53:52;;;;;;;4.93;4.43;;;11.20;99.90;;;;;;5074481;28;20572;-60
2021/05/28 00:56:20;;;;;;;5.40;4.20;;;11.20;99.90;;;;;;5074725;28;20200;-60
2021/05/28 00:58:55;;;;;;;6.30;4.23;;;11.30;99.90;;;;;;5074637;28;20291;-59
2021/05/28 01:01:22;;;;;;;5.13;4.63;;;11.20;99.90;;;;;;5074471;28;20304;-60
2021/05/28 01:03:50;;;;;;;7.07;4.50;;;11.30;99.90;;;;;;5074394;28;20737;-59
2021/05/28 01:06:19;;;;;;;5.13;4.60;;;11.30;99.90;;;;;;5074295;28;20693;-60
2021/05/28 01:08:46;;;;;;;5.30;4.37;;;11.30;99.90;;;;;;5074639;28;20203;-60
2021/05/28 01:11:13;;;;;;;5.37;4.33;;;11.30;99.90;;;;;;5074501;28;20210;-59
2021/05/28 01:13:41;;;;;;;7.93;5.10;;;11.30;99.90;;;;;;5074024;28;20599;-60
2021/05/28 01:16:08;;;;;;;5.40;4.90;;;11.20;99.90;;;;;;5074119;28;20203;-59
2021/05/28 01:18:35;;;;;;;4.90;4.43;;;11.30;99.90;;;;;;5073999;28;20661;-59
2021/05/28 01:21:03;;;;;;;5.60;4.30;;;11.30;99.90;;;;;;5074111;28;20563;-59
2021/05/28 01:23:31;;;;;;;4.70;4.17;;;11.30;99.90;;;;;;5073379;28;20213;-59
2021/05/28 01:25:59;;;;;;;5.17;4.50;;;11.30;99.90;;;;;;5074272;28;20207;-59
2021/05/28 01:28:27;;;;;;;6.50;4.47;;;11.30;99.90;;;;;;5076242;28;20207;-60
2021/05/28 01:30:55;;;;;;;6.73;4.50;;;11.30;99.90;;;;;;5093873;28;20547;-59
2021/05/28 01:33:22;;;;;;;5.27;4.83;;;11.40;99.90;;;;;;5093895;28;20199;-60
2021/05/28 01:35:50;;;;;;;6.07;5.00;;;11.30;99.90;;;;;;5093906;28;20837;-59
2021/05/28 01:38:17;;;;;;;5.03;4.63;;;11.30;99.90;;;;;;5094196;28;20200;-58
2021/05/28 01:40:46;;;;;;;6.20;5.00;;;11.30;99.90;;;;;;5093922;28;20218;-58
2021/05/28 01:43:13;;;;;;;6.07;5.47;;;11.30;99.90;;;;;;5093744;28;20204;-58
2021/05/28 01:45:41;;;;;;;7.40;5.17;;;11.20;99.90;;;;;;5093642;28;20294;-60
2021/05/28 01:48:09;;;;;;;6.77;5.57;;;11.20;99.90;;;;;;5094091;28;20196;-61
2021/05/28 01:50:43;;;;;;;6.43;5.67;;;11.20;99.90;;;;;;5093683;28;20196;-60
2021/05/28 01:53:11;;;;;;;6.17;4.93;;;11.30;99.90;;;;;;5093743;28;20630;-58
2021/05/28 01:55:38;;;;;;;5.93;5.30;;;11.30;99.90;;;;;;5093928;28;20283;-58
2021/05/28 01:58:08;;;;;;;7.07;5.37;;;11.30;99.90;;;;;;5093743;28;20223;-60
2021/05/28 02:00:36;;;;;;;8.50;5.23;;;11.20;99.90;;;;;;5093573;28;20339;-59
2021/05/28 02:03:04;;;;;;;6.60;5.57;;;11.10;99.90;;;;;;5093872;28;20295;-58
2021/05/28 02:05:31;;;;;;;8.77;5.50;;;11.20;99.90;;;;;;5093334;28;20658;-60
2021/05/28 02:07:59;;;;;;;8.27;6.03;;;11.10;99.90;;;;;;5093653;28;20711;-58
2021/05/28 02:10:28;;;;;;;6.50;5.33;;;11.20;99.90;;;;;;5093773;28;20308;-63
2021/05/28 02:12:55;;;;;;;6.47;5.87;;;11.10;99.90;;;;;;5093142;28;20729;-65
2021/05/28 02:15:24;;;;;;;6.70;6.00;;;11.10;99.90;;;;;;5093065;28;20200;-65
2021/05/28 02:17:52;;;;;;;7.37;5.83;;;11.10;99.90;;;;;;5093496;28;20200;-64
2021/05/28 02:20:21;;;;;;;7.20;5.83;;;11.00;99.90;;;;;;5093375;28;20222;-64
2021/05/28 02:22:48;;;;;;;7.47;6.37;;;10.90;99.90;;;;;;5093423;28;20207;-64
2021/05/28 02:25:16;;;;;;;7.87;6.63;;;10.90;99.90;;;;;;5093340;28;20210;-64
2021/05/28 02:27:44;;;;;;;10.67;6.60;;;10.90;99.90;;;;;;5093466;28;20200;-63
2021/05/28 02:30:13;;;;;;;8.77;6.07;;;10.90;99.90;;;;;;5075926;28;20211;-64
2021/05/28 02:32:42;;;;;;;8.33;7.27;;;10.90;99.90;;;;;;5072773;28;20292;-64
2021/05/28 02:35:11;;;;;;;9.73;7.43;;;10.80;99.90;;;;;;5072582;28;20303;-64
2021/05/28 02:37:39;;;;;;;9.20;7.40;;;10.80;99.90;;;;;;5072644;28;20287;-63
2021/05/28 02:40:08;;;;;;;9.07;7.70;;;10.80;99.90;;;;;;5072593;28;20730;-65
2021/05/28 02:42:36;;;;;;;10.77;7.43;;;10.80;99.90;;;;;;5072863;28;20354;-65
2021/05/28 02:45:06;;;;;;;9.63;7.73;;;10.70;99.90;;;;;;5072893;28;20201;-59
2021/05/28 02:47:33;;;;;;;9.13;7.90;;;10.70;99.90;;;;;;5072991;28;20283;-60
2021/05/28 02:50:01;;;;;;;8.60;7.67;;;10.70;99.90;;;;;;5072680;28;20197;-59
2021/05/28 02:52:29;;;;;;;9.87;8.30;;;10.70;99.90;;;;;;5072433;28;20224;-58
2021/05/28 02:54:56;;;;;;;10.43;7.57;;;10.60;99.90;;;;;;5072432;28;20208;-60
2021/05/28 02:57:23;;;;;;;9.40;8.47;;;10.60;99.90;;;;;;5072659;28;20197;-59
2021/05/28 02:59:51;;;;;;;11.03;8.20;;;10.60;99.90;;;;;;5072566;28;20200;-60
2021/05/28 03:02:18;;;;;;;10.60;8.20;;;10.60;99.90;;;;;;5072934;28;20295;-60
2021/05/28 03:04:46;;;;;;;10.43;9.00;;;10.50;99.90;;;;;;5072568;28;20760;-59
2021/05/28 03:07:14;;;;;;;9.73;8.83;;;10.60;99.90;;;;;;5072688;28;20299;-60
2021/05/28 03:09:41;;;;;;;11.47;8.57;;;10.60;99.90;;;;;;5072550;28;20305;-59
2021/05/28 03:12:12;;;;;;;10.23;8.60;;;10.60;99.90;;;;;;5072517;28;20185;-59
2021/05/28 03:14:39;;;;;;;9.97;8.97;;;10.60;99.90;;;;;;5072567;28;20562;-59
2021/05/28 03:17:07;;;;;;;11.60;8.70;;;10.60;99.90;;;;;;5072621;28;20295;-60
2021/05/28 03:19:41;;;;;;;9.97;8.97;;;10.60;99.90;;;;;;5072697;28;20196;-58
2021/05/28 03:24:55;;;;;;;14.07;9.23;;;10.60;99.90;;;;;;5072307;28;20299;-59
2021/05/28 03:27:23;;;;;;;13.30;9.67;;;10.60;99.90;;;;;;5072332;28;20258;-59
2021/05/28 03:29:50;;;;;;;9.73;8.77;;;10.60;99.90;;;;;;5085898;28;20727;-60
2021/05/28 03:32:23;;;;;;;10.17;9.07;;;10.60;99.90;;;;;;5092656;28;20181;-59
2021/05/28 03:34:51;;;;;;;10.00;8.70;;;10.60;99.90;;;;;;5092289;28;20743;-59
2021/05/28 03:37:18;;;;;;;9.07;8.17;;;10.70;99.90;;;;;;5092815;28;20196;-59
2021/05/28 03:39:46;;;;;;;10.77;9.77;;;10.70;99.90;;;;;;5092507;28;20206;-59
2021/05/28 03:42:15;;;;;;;9.40;8.50;;;10.70;99.90;;;;;;5092376;28;20219;-58
2021/05/28 03:44:42;;;;;;;10.20;8.63;;;10.70;99.90;;;;;;5092545;28;20295;-59
2021/05/28 03:47:09;;;;;;;10.10;9.10;;;10.70;99.90;;;;;;5095953;28;20547;-61
2021/05/28 03:49:37;;;;;;;9.70;8.80;;;10.80;99.90;;;;;;5096278;28;20295;-60
2021/05/28 03:52:05;;;;;;;10.30;9.20;;;10.70;99.90;;;;;;5095919;28;20239;-59
2021/05/28 03:54:33;;;;;;;10.30;9.07;;;10.70;99.90;;;;;;5096227;28;20592;-60
2021/05/28 03:57:00;;;;;;;9.80;8.80;;;10.70;99.90;;;;;;5095778;28;20203;-59
2021/05/28 03:59:28;;;;;;;12.60;9.07;;;10.70;99.90;;;;;;5096130;28;20318;-59
2021/05/28 04:01:56;;;;;;;10.77;9.33;;;10.70;99.90;;;;;;5095912;28;20224;-59
2021/05/28 04:04:23;;;;;;;10.17;9.17;;;10.70;99.90;;;;;;5096100;28;20621;-60
2021/05/28 04:06:50;;;;;;;10.60;9.50;;;10.70;99.90;;;;;;5095697;28;20649;-59
2021/05/28 04:09:18;;;;;;;10.73;9.63;;;10.70;99.90;;;;;;5096163;28;20206;-65
2021/05/28 04:11:45;;;;;;;10.70;9.70;;;10.80;99.90;;;;;;5095616;28;20196;-65
2021/05/28 04:14:14;;;;;;;10.80;9.70;;;10.80;99.90;;;;;;5095546;28;20536;-65
2021/05/28 04:16:42;;;;;;;11.77;10.37;;;10.80;99.90;;;;;;5095656;28;20196;-64
2021/05/28 04:19:09;;;;;;;11.57;9.77;;;10.80;99.90;;;;;;5095382;28;20657;-66
2021/05/28 04:21:37;;;;;;;11.33;10.17;;;10.90;99.90;;;;;;5095578;28;20216;-65
2021/05/28 04:24:05;;;;;;;11.00;9.83;;;10.90;99.90;;;;;;5095633;28;20200;-64
2021/05/28 04:26:33;;;;;;;10.27;9.27;;;10.90;99.90;;;;;;5095642;28;20287;-65
2021/05/28 04:29:01;;;;;;;10.47;9.43;;;10.90;99.90;;;;;;5087941;28;20288;-65
2021/05/28 04:31:28;;;;;;;12.10;10.33;;;10.90;99.90;;;;;;5074938;28;20207;-65
2021/05/28 04:33:56;;;;;;;11.57;10.30;;;10.90;99.90;;;;;;5075216;28;20297;-65
2021/05/28 04:36:24;;;;;;;11.70;10.50;;;10.90;99.90;;;;;;5075093;28;20547;-64
2021/05/28 04:38:51;;;;;;;12.67;10.70;;;11.00;99.90;;;;;;5075214;28;20283;-65
2021/05/28 04:41:18;;;;;;;11.40;9.67;;;11.10;99.90;;;;;;5074805;28;20572;-64
2021/05/28 04:43:46;;;;;;;11.90;9.90;;;11.10;99.90;;;;;;5075053;28;20306;-65
2021/05/28 04:46:13;;;;;;;13.00;10.83;;;11.20;99.90;;;;;;5075087;28;20223;-65
2021/05/28 04:48:40;;;;;;;13.23;10.63;;;11.30;99.90;;;;;;5074966;28;20224;-59
2021/05/28 04:51:08;;;;;;;11.10;10.00;;;11.40;99.90;;;;;;5074490;28;20718;-60
2021/05/28 04:53:36;;;;;;;14.03;12.43;;;11.40;99.90;;;;;;5074440;28;20224;-60
2021/05/28 04:56:04;;;;;;;12.30;11.00;;;11.50;99.90;;;;;;5074393;28;20220;-60
2021/05/28 04:58:31;;;;;;;12.03;10.83;;;11.50;99.90;;;;;;5074325;28;20205;-61
2021/05/28 05:00:58;;;;;;;12.47;11.13;;;11.60;99.90;;;;;;5074312;28;20228;-60
2021/05/28 05:03:25;;;;;;;11.90;10.73;;;11.60;99.90;;;;;;5074593;28;20211;-60
2021/05/28 05:05:53;;;;;;;12.23;10.93;;;11.70;99.90;;;;;;5074592;28;20223;-59
2021/05/28 05:08:21;;;;;;;10.77;9.77;;;11.70;99.90;;;;;;5074244;28;20207;-60
2021/05/28 05:10:48;;;;;;;11.43;10.33;;;11.80;99.90;;;;;;5074479;28;20211;-61
2021/05/28 05:13:16;;;;;;;11.73;10.53;;;11.80;99.90;;;;;;5074345;28;20204;-60
2021/05/28 05:15:43;;;;;;;11.50;10.40;;;11.70;99.90;;;;;;5074448;28;20295;-59
2021/05/28 05:18:11;;;;;;;11.00;10.00;;;11.70;99.90;;;;;;5074231;28;20201;-60
2021/05/28 05:20:38;;;;;;;10.77;9.60;;;11.80;99.90;;;;;;5073811;28;20643;-59
2021/05/28 05:23:06;;;;;;;10.20;9.20;;;11.90;99.90;;;;;;5074138;28;20196;-60
2021/05/28 05:25:34;;;;;;;9.83;8.83;;;11.90;99.90;;;;;;5073990;28;20267;-59
2021/05/28 05:28:01;;;;;;;10.40;9.10;;;12.00;99.90;;;;;;5074071;28;20203;-59
2021/05/28 05:30:29;;;;;;;9.87;8.27;;;12.00;99.90;;;;;;5093043;28;20610;-60
2021/05/28 05:32:56;;;;;;;9.03;8.17;;;12.00;99.90;;;;;;5094065;28;20200;-59
2021/05/28 05:35:24;;;;;;;9.53;8.63;;;12.00;99.90;;;;;;5094191;28;20282;-60
2021/05/28 05:37:51;;;;;;;10.20;8.80;;;12.00;99.90;;;;;;5093774;28;20208;-60
2021/05/28 05:40:18;;;;;;;9.30;8.40;;;12.00;99.90;;;;;;5094181;28;20298;-60
2021/05/28 05:42:48;;;;;;;8.70;7.90;;;12.10;99.90;;;;;;5093363;28;20597;-59
2021/05/28 05:45:16;;;;;;;9.07;7.97;;;12.10;99.90;;;;;;5093884;28;20204;-60
2021/05/28 05:47:44;;;;;;;8.87;7.97;;;12.20;99.90;;;;;;5093846;28;20295;-60
2021/05/28 05:50:13;;;;;;;9.00;8.10;;;12.40;99.90;;;;;;5093896;28;20212;-65
2021/05/28 05:52:40;;;;;;;9.30;8.40;;;12.60;99.90;;;;;;5093518;28;20266;-65
2021/05/28 05:55:10;;;;;;;7.63;6.93;;;12.80;99.90;;;;;;5093599;28;20676;-65
2021/05/28 05:57:38;;;;;;;9.20;8.27;;;13.00;99.90;;;;;;5093479;28;20196;-66
2021/05/28 06:00:07;;;;;;;9.40;7.30;;;13.30;99.90;;;;;;5093673;28;20204;-65
2021/05/28 06:02:34;;;;;;;8.23;7.43;;;13.40;99.90;;;;;;5093329;28;20227;-65
2021/05/28 06:05:02;;;;;;;7.35;6.63;;;13.50;99.90;;;;;;5093734;28;20249;-65
2021/05/28 06:07:29;;;;;;;7.40;6.60;;;13.70;99.90;;;;;;5093001;28;20214;-66
2021/05/28 06:09:57;;;;;;;6.80;6.20;;;13.90;99.90;;;;;;5086878;28;20652;-65
2021/05/28 06:12:24;;;;;;;9.23;5.97;;;13.80;99.90;;;;;;5072241;28;20559;-65
2021/05/28 06:14:52;;;;;;;6.38;5.78;;;13.90;99.90;;;;;;5067367;28;20200;-63
2021/05/28 06:17:20;;;;;;;6.40;5.82;;;13.90;99.90;;;;;;5072574;28;20291;-66
2021/05/28 06:19:47;;;;;;;7.43;6.03;;;14.00;99.90;;;;;;5070177;28;20203;-66
2021/05/28 06:22:20;;;;;;;6.38;5.53;;;14.20;99.90;;;;;;5072495;28;20208;-65
2021/05/28 06:24:51;;;;;;;6.15;5.28;;;14.40;99.90;;;;;;5059201;28;20188;-65
2021/05/28 06:27:19;;;;;;;5.90;5.30;;;14.40;99.90;;;;;;5073220;28;20233;-65
2021/05/28 06:29:46;;;;;;;6.65;5.38;;;14.40;99.90;;;;;;5086279;28;20203;-64
2021/05/28 06:32:13;;;;;;;6.80;5.88;;;14.50;99.90;;;;;;5092882;28;20196;-64
2021/05/28 06:34:42;;;;;;;5.88;5.03;;;14.40;99.90;;;;;;5093167;28;20580;-65
2021/05/28 06:37:09;;;;;;;5.15;4.72;;;14.30;99.90;;;;;;5092860;28;20236;-65
2021/05/28 06:39:36;;;;;;;5.28;4.88;;;14.10;99.90;;;;;;5092705;28;20305;-66
2021/05/28 06:42:04;;;;;;;5.57;5.07;;;14.10;99.90;;;;;;5092655;28;20234;-64
2021/05/28 06:44:31;;;;;;;6.60;5.35;;;14.30;99.90;;;;;;5092885;28;20211;-65
2021/05/28 06:46:59;;;;;;;5.63;5.13;;;14.60;99.90;;;;;;5092655;28;20621;-64
2021/05/28 06:49:26;;;;;;;6.05;5.32;;;14.90;99.90;;;;;;5092956;28;20200;-64
2021/05/28 06:51:54;;;;;;;5.43;4.93;;;15.20;99.90;;;;;;5092801;28;20323;-68
2021/05/28 06:54:22;;;;;;;5.47;4.63;;;15.20;99.90;;;;;;5092631;28;20206;-66
2021/05/28 06:56:49;;;;;;;5.82;4.80;;;15.10;99.90;;;;;;5092938;28;20196;-65
2021/05/28 06:59:16;;;;;;;5.30;4.80;;;15.10;99.90;;;;;;5092719;28;20295;-66
2021/05/28 07:01:43;;;;;;;4.47;4.05;;;15.00;99.90;;;;;;5092788;28;20216;-66
2021/05/28 07:04:11;;;;;;;5.00;4.55;;;14.90;99.90;;;;;;5092584;28;20633;-65
2021/05/28 07:06:38;;;;;;;4.93;4.45;;;15.20;99.90;;;;;;5092798;28;20203;-66
2021/05/28 07:09:07;;;;;;;5.88;4.70;;;15.40;99.90;;;;;;5092722;28;20283;-64
2021/05/28 07:11:35;;;;;;;5.57;4.45;;;15.60;99.90;;;;;;5090233;28;20348;-65
2021/05/28 07:14:02;;;;;;;4.93;4.45;;;15.60;99.90;;;;;;5092670;28;20232;-65
2021/05/28 07:16:30;;;;;;;5.07;4.10;;;15.60;99.90;;;;;;5092405;28;20717;-64
2021/05/28 07:18:57;;;;;;;4.28;3.88;;;15.40;99.90;;;;;;5092912;28;20291;-65
2021/05/28 07:21:25;;;;;;;5.63;4.18;;;15.20;99.90;;;;;;5096798;28;20200;-65
2021/05/28 07:23:53;;;;;;;4.80;3.42;;;15.00;99.90;;;;;;5096502;28;20200;-65
2021/05/28 07:26:22;;;;;;;4.18;3.78;;;14.80;99.90;;;;;;5096856;28;20202;-65
2021/05/28 07:28:49;;;;;;;3.58;3.28;;;14.80;99.90;;;;;;5091270;28;20291;-66
2021/05/28 07:31:16;;;;;;;4.95;3.60;;;14.80;99.90;;;;;;5076269;28;20205;-64
2021/05/28 07:33:44;;;;;;;4.15;3.85;;;15.00;99.90;;;;;;5076300;28;20207;-66
2021/05/28 07:36:11;;;;;;;3.90;3.60;;;15.40;99.90;;;;;;5076279;28;20196;-65
2021/05/28 07:38:39;;;;;;;3.67;3.15;;;15.70;99.90;;;;;;5075956;28;20668;-65
2021/05/28 07:41:06;;;;;;;5.18;2.97;;;15.90;99.90;;;;;;5075887;28;20704;-65
2021/05/28 07:43:35;;;;;;;4.10;2.97;;;16.00;99.90;;;;;;5075912;28;20221;-65
2021/05/28 07:46:03;;;;;;;4.55;3.15;;;16.20;99.90;;;;;;5075915;28;20207;-65
2021/05/28 07:48:30;;;;;;;3.35;3.05;;;16.30;99.90;;;;;;5076287;28;20569;-64
2021/05/28 07:50:58;;;;;;;5.38;3.00;;;16.20;99.90;;;;;;5075786;28;20316;-64
2021/05/28 07:53:27;;;;;;;4.63;3.17;;;15.90;99.90;;;;;;5075979;28;20220;-64
2021/05/28 07:55:58;;;;;;;3.60;3.30;;;16.00;99.90;;;;;;5075717;28;20735;-63
2021/05/28 07:58:26;;;;;;;5.18;3.78;;;16.10;99.90;;;;;;5075783;28;20189;-64
2021/05/28 08:00:54;;;;;;;4.40;3.70;;;15.90;99.90;;;;;;5075661;28;20207;-66
2021/05/28 08:03:22;;;;;;;4.07;3.30;;;15.70;99.90;;;;;;5075485;28;20688;-64
2021/05/28 08:05:50;;;;;;;3.55;3.25;;;15.70;99.90;;;;;;5075635;28;20283;-65
2021/05/28 08:08:19;;;;;;;3.45;3.15;;;15.70;99.90;;;;;;5075726;28;20211;-64
2021/05/28 08:10:47;;;;;;;3.60;3.30;;;15.60;99.90;;;;;;5075496;28;20207;-66
2021/05/28 08:13:14;;;;;;;4.47;3.33;;;15.20;99.90;;;;;;5075368;28;20197;-64
2021/05/28 08:15:41;;;;;;;3.08;2.78;;;15.30;99.90;;;;;;5075429;28;20202;-64
2021/05/28 08:18:10;;;;;;;3.30;3.00;;;15.70;99.90;;;;;;5074839;28;20303;-64
2021/05/28 08:20:39;;;;;;;4.07;2.95;;;16.10;99.90;;;;;;5075438;28;20262;-66
2021/05/28 08:23:06;;;;;;;4.60;2.80;;;16.20;99.90;;;;;;5075373;28;20217;-66
2021/05/28 08:25:33;;;;;;;3.88;2.90;;;16.20;99.90;;;;;;5075165;28;20300;-65
2021/05/28 08:28:01;;;;;;;3.40;3.10;;;15.90;99.90;;;;;;5075086;28;20301;-64
2021/05/28 08:30:28;;;;;;;3.35;3.05;;;15.70;99.90;;;;;;5087184;28;20537;-64
2021/05/28 08:32:56;;;;;;;4.45;3.08;;;15.70;99.90;;;;;;5074222;28;20565;-65
2021/05/28 08:35:24;;;;;;;3.00;2.70;;;15.70;99.90;;;;;;5054692;28;20788;-65
2021/05/28 08:37:52;;;;;;;3.53;3.22;;;15.70;99.90;;;;;;5054680;28;20201;-66
2021/05/28 08:40:20;;;;;;;4.38;3.10;;;15.80;99.90;;;;;;5054719;28;20201;-66
2021/05/28 08:42:48;;;;;;;3.42;3.13;;;15.60;99.90;;;;;;5054426;28;20251;-67
2021/05/28 08:45:16;;;;;;;3.70;3.40;;;15.40;99.90;;;;;;5054161;28;20216;-66
2021/05/28 08:47:44;;;;;;;3.60;3.30;;;15.10;99.90;;;;;;5054615;28;20206;-65
2021/05/28 08:50:12;;;;;;;4.50;3.28;;;14.90;99.90;;;;;;5054315;28;20237;-64
2021/05/28 08:52:41;;;;;;;4.20;3.38;;;14.80;99.90;;;;;;5054180;28;20233;-64
2021/05/28 08:55:09;;;;;;;3.83;3.22;;;14.80;99.90;;;;;;5054320;28;20252;-63
2021/05/28 08:57:37;;;;;;;3.55;2.90;;;15.00;99.90;;;;;;5054285;28;20206;-63
2021/05/28 09:00:05;;;;;;;3.20;2.90;;;15.10;99.90;;;;;;5053986;28;20210;-64
2021/05/28 09:02:35;;;;;;;4.25;3.42;;;15.10;99.90;;;;;;5053933;28;20912;-65
2021/05/28 09:05:10;;;;;;;4.22;2.60;;;15.20;99.90;;;;;;5054019;28;20914;-65
2021/05/28 09:07:39;;;;;;;4.00;3.40;;;15.40;99.90;;;;;;5056368;28;20256;-65
2021/05/28 09:10:36;;;;;;;5.22;3.40;;;15.50;99.90;;;;;;5074038;28;20254;-64
2021/05/28 09:13:09;;;;;;;3.72;3.30;;;15.90;99.90;;;;;;5073800;28;20657;-64
2021/05/28 09:15:37;;;;;;;3.63;3.33;;;16.10;99.90;;;;;;5074032;28;20240;-64
2021/05/28 09:18:05;;;;;;;6.30;3.47;;;16.40;99.90;;;;;;5073725;28;20687;-63
2021/05/28 09:20:32;;;;;;;4.05;3.35;;;16.70;99.90;;;;;;5073956;28;20283;-65
2021/05/28 09:23:11;;;;;;;3.47;2.95;;;17.00;99.90;;;;;;5073542;28;20223;-64
2021/05/28 09:25:56;;;;;;;5.75;3.10;;;16.90;99.90;;;;;;5074230;28;20184;-62
2021/05/28 09:28:24;;;;;;;2.83;2.60;;;16.80;99.90;;;;;;5075750;28;20264;-63
2021/05/28 09:30:56;;;;;;;2.90;2.70;;;16.60;99.90;;;;;;5093983;28;20246;-63
2021/05/28 09:33:24;;;;;;;3.60;3.20;;;16.70;99.90;;;;;;5093812;28;20295;-65
2021/05/28 09:35:53;;;;;;;3.58;3.17;;;16.60;99.90;;;;;;5074713;28;20293;-66
2021/05/28 09:38:21;;;;;;;3.67;3.28;;;16.40;99.90;;;;;;5076342;28;20228;-65
2021/05/28 09:40:49;;;;;;;3.88;3.33;;;16.20;99.90;;;;;;5090272;28;20287;-64
2021/05/28 09:43:27;;;;;;;3.80;3.08;;;16.10;99.90;;;;;;5071925;28;20772;-66
2021/05/28 09:45:54;;;;;;;4.60;3.30;;;16.10;99.90;;;;;;5083376;28;20654;-64
2021/05/28 09:48:28;;;;;;;4.57;3.67;;;16.40;99.90;;;;;;5093456;28;20656;-67
2021/05/28 09:50:58;;;;;;;4.25;3.20;;;16.60;99.90;;;;;;5093321;28;20219;-66
2021/05/28 09:53:28;;;;;;;4.03;2.97;;;16.70;99.90;;;;;;5091760;28;20225;-63
2021/05/28 09:55:56;;;;;;;3.40;2.97;;;16.50;99.90;;;;;;5073458;28;20291;-63
2021/05/28 09:58:24;;;;;;;3.50;3.20;;;16.10;99.90;;;;;;5073265;28;20222;-63
2021/05/28 10:00:52;;;;;;;5.35;3.65;;;15.80;99.90;;;;;;5072849;28;20258;-64
2021/05/28 10:03:22;;;;;;;3.15;2.72;;;15.70;99.90;;;;;;5073281;28;20220;-66
2021/05/28 10:05:52;;;;;;;6.00;3.15;;;15.60;99.90;;;;;;5073650;28;20288;-72
2021/05/28 10:08:21;;;;;;;3.75;2.50;;;15.90;99.90;;;;;;5073204;28;20288;-66
2021/05/28 10:10:50;;;;;;;4.35;2.95;;;16.50;99.90;;;;;;5077596;28;20286;-68
2021/05/28 10:13:19;;;;;;;4.65;2.90;;;17.10;99.90;;;;;;5093241;28;20294;-67
2021/05/28 10:15:47;;;;;;;3.58;2.85;;;17.40;99.90;;;;;;5092901;28;20208;-66
2021/05/28 10:18:17;;;;;;;5.03;2.90;;;17.20;99.90;;;;;;5093117;28;20620;-65
2021/05/28 10:20:47;;;;;;;4.60;2.60;;;17.20;99.90;;;;;;5093025;28;20204;-65
2021/05/28 10:23:15;;;;;;;5.03;2.30;;;17.00;99.90;;;;;;5092967;28;20629;-64
2021/05/28 10:25:43;;;;;;;3.85;2.40;;;16.60;99.90;;;;;;5093138;28;20282;-64
2021/05/28 10:28:17;;;;;;;3.17;2.10;;;16.50;99.90;;;;;;5093047;28;20287;-67
2021/05/28 10:30:46;;;;;;;2.85;2.05;;;16.50;99.90;;;;;;5093038;28;20211;-69
2021/05/28 10:33:17;;;;;;;3.70;2.22;;;16.50;99.90;;;;;;5092687;28;20283;-70
2021/05/28 10:35:47;;;;;;;4.13;2.13;;;16.30;99.90;;;;;;5092743;28;20256;-68
2021/05/28 10:38:54;;;;;;;4.82;2.30;;;16.30;99.90;;;;;;5092931;28;20303;-68
2021/05/28 10:41:46;;;;;;;2.97;2.10;;;16.10;99.90;;;;;;5087764;28;20204;-68
2021/05/28 10:44:15;;;;;;;2.95;2.30;;;15.90;99.90;;;;;;5092617;28;20298;-66
2021/05/28 10:47:21;;;;;;;3.78;2.47;;;15.80;99.90;;;;;;5073448;28;20310;-67
2021/05/28 10:49:50;;;;;;;3.88;2.50;;;15.90;99.90;;;;;;5072680;28;20291;-65
2021/05/28 10:52:29;;;;;;;3.00;2.70;;;16.20;99.90;;;;;;5072187;28;20816;-65
2021/05/28 10:54:58;;;;;;;3.97;2.60;;;16.70;99.90;;;;;;5072342;28;20275;-65
2021/05/28 10:57:48;;;;;;;3.42;2.83;;;17.10;99.90;;;;;;5072344;28;20608;-65
2021/05/28 11:00:27;;;;;;;5.00;2.63;;;17.10;99.90;;;;;;5072374;28;20268;-66
2021/05/28 11:03:08;;;;;;;2.58;2.38;;;17.00;99.90;;;;;;5072313;28;20201;-66
2021/05/28 11:05:51;;;;;;;2.50;2.30;;;16.70;99.90;;;;;;5072528;28;20191;-66
2021/05/28 11:08:41;;;;;;;2.72;2.50;;;16.80;99.90;;;;;;5072134;28;20212;-67
2021/05/28 11:11:09;;;;;;;3.33;2.45;;;17.20;99.90;;;;;;5072364;28;20220;-65
2021/05/28 11:13:57;;;;;;;2.70;2.28;;;17.50;99.90;;;;;;5072271;28;20277;-66
2021/05/28 11:16:25;;;;;;;4.85;2.50;;;17.60;99.90;;;;;;5072293;28;20197;-66
2021/05/28 11:18:52;;;;;;;3.35;2.55;;;17.40;99.90;;;;;;5072052;28;20847;-65
2021/05/28 11:21:24;;;;;;;3.20;2.80;;;17.20;99.90;;;;;;5072279;28;20284;-65
2021/05/28 11:23:56;;;;;;;3.28;2.97;;;17.00;99.90;;;;;;5072120;28;20223;-66
2021/05/28 11:26:25;;;;;;;2.47;2.28;;;16.80;99.90;;;;;;5071811;28;20235;-65
2021/05/28 11:28:55;;;;;;;4.97;3.05;;;16.60;99.90;;;;;;5071754;28;20228;-65
2021/05/28 11:31:24;;;;;;;3.05;2.70;;;16.50;99.90;;;;;;5071616;28;20289;-65
2021/05/28 11:33:57;;;;;;;5.07;2.70;;;16.20;99.90;;;;;;5071565;28;20323;-65
2021/05/28 11:36:45;;;;;;;3.75;2.78;;;16.20;99.90;;;;;;5072249;28;20181;-65
2021/05/28 11:39:20;;;;;;;4.30;3.28;;;16.30;99.90;;;;;;5072148;28;20189;-69
2021/05/28 11:41:50;;;;;;;3.88;3.42;;;16.20;99.90;;;;;;5071752;28;20276;-67
2021/05/28 11:44:19;;;;;;;3.33;3.00;;;16.30;99.90;;;;;;5068400;28;20230;-67
2021/05/28 11:46:49;;;;;;;2.80;2.60;;;16.30;99.90;;;;;;5080873;28;20246;-66
2021/05/28 11:49:18;;;;;;;3.10;2.20;;;16.40;99.90;;;;;;5057538;28;20186;-66
2021/05/28 11:51:56;;;;;;;2.70;2.50;;;16.50;99.90;;;;;;5051658;28;20705;-67
2021/05/28 11:54:25;;;;;;;4.13;2.60;;;16.70;99.90;;;;;;5071817;28;20625;-66
2021/05/28 11:56:58;;;;;;;4.90;2.63;;;16.70;99.90;;;;;;5072010;28;20218;-66
2021/05/28 11:59:49;;;;;;;3.90;2.35;;;16.80;99.90;;;;;;5072079;28;20196;-66
2021/05/28 12:02:52;;;;;;;4.68;2.92;;;16.80;99.90;;;;;;5071929;28;20181;-65
2021/05/28 12:05:29;;;;;;;3.92;3.03;;;16.80;99.90;;;;;;4990391;28;20701;-66
2021/05/28 12:07:59;;;;;;;4.20;3.03;;;16.80;99.90;;;;;;4993387;28;20187;-66
2021/05/28 12:10:27;;;;;;;3.85;3.47;;;17.10;99.90;;;;;;5038680;28;20197;-65
2021/05/28 12:13:05;;;;;;;3.55;3.25;;;17.40;99.90;;;;;;5075320;28;20207;-66
2021/05/28 12:15:35;;;;;;;3.60;2.50;;;17.60;99.90;;;;;;5075603;28;20268;-68
2021/05/28 12:18:14;;;;;;;3.75;2.70;;;17.60;99.90;;;;;;5075362;28;20299;-67
2021/05/28 12:20:42;;;;;;;3.20;2.90;;;17.60;99.90;;;;;;5075538;28;20192;-66
2021/05/28 12:23:13;;;;;;;3.60;3.30;;;17.70;99.90;;;;;;5075328;28;20207;-65
2021/05/28 12:25:44;;;;;;;4.55;3.70;;;17.80;99.90;;;;;;5075436;28;20188;-66
2021/05/28 12:28:26;;;;;;;4.32;3.78;;;17.90;99.90;;;;;;5057518;28;20195;-67
2021/05/28 12:30:56;;;;;;;3.80;3.50;;;18.00;99.90;;;;;;5075293;28;20650;-66
2021/05/28 12:33:30;;;;;;;3.95;2.83;;;;;;;;;;5075417;28;20185;-66
2021/05/28 12:35:58;;;;;;;3.45;3.15;;;;;;;;;;5075378;28;20207;-67
2021/05/28 12:38:32;;;;;;;2.90;2.70;;;;;;;;;;5075292;28;20209;-66
2021/05/28 12:41:01;;;;;;;3.90;3.10;;;;;;;;;;5075124;28;20186;-65
2021/05/28 12:43:30;;;;;;;3.67;3.30;;;;;;;;;;5074692;28;20225;-66
2021/05/28 12:45:58;;;;;;;3.05;2.70;;;;;;;;;;5087879;28;20287;-65
2021/05/28 12:48:42;;;;;;;3.10;2.75;;;;;;;;;;5095246;28;20204;-65
2021/05/28 12:51:12;;;;;;;4.90;2.95;;;;;;;;;;5094653;28;20699;-65
2021/05/28 12:53:41;;;;;;;3.70;2.63;;;;;;;;;;5095127;28;20291;-66
2021/05/28 12:56:09;;;;;;;3.53;3.00;;;;;;;;;;5095085;28;20307;-65
2021/05/28 12:58:40;;;;;;;3.85;3.00;;;;;;;;;;5094773;28;20558;-66
2021/05/28 13:01:09;;;;;;;4.18;3.08;;;;;;;;;;5094816;28;20220;-66
2021/05/28 13:03:38;;;;;;;3.72;2.75;;;;;;;;;;5094827;28;20259;-66